sensor_id;sensor_type;location;lat;lon;timestamp;P1;durP1;ratioP1;P2;durP2;ratioP2
35689;SDS011;26977;44.830;-0.674;2022-12-29T00:02:13;13.95;;;3.10;;
35689;SDS011;26977;44.830;-0.674;2022-12-29T00:04:40;16.30;;;3.60;;
35689;SDS011;26977;44.830;-0.674;2022-12-29T00:07:06;16.67;;;3.13;;
35689;SDS011;26977;44.830;-0.674;2022-12-29T00:09:32;12.23;;;3.45;;
35689;SDS011;26977;44.830;-0.674;2022-12-29T00:11:59;13.02;;;2.80;;
35689;SDS011;26977;44.830;-0.674;2022-12-29T00:14:25;13.02;;;2.58;;
35689;SDS011;26977;44.830;-0.674;2022-12-29T00:17:09;15.40;;;3.33;;
35689;SDS011;26977;44.830;-0.674;2022-12-29T00:19:35;12.43;;;2.80;;
35689;SDS011;26977;44.830;-0.674;2022-12-29T00:22:20;11.90;;;3.20;;
35689;SDS011;26977;44.830;-0.674;2022-12-29T00:25:04;15.38;;;3.10;;
35689;SDS011;26977;44.830;-0.674;2022-12-29T00:27:49;9.45;;;2.45;;
35689;SDS011;26977;44.830;-0.674;2022-12-29T00:30:33;9.20;;;2.78;;
35689;SDS011;26977;44.830;-0.674;2022-12-29T00:33:19;10.80;;;2.65;;
35689;SDS011;26977;44.830;-0.674;2022-12-29T00:36:13;17.15;;;2.90;;
35689;SDS011;26977;44.830;-0.674;2022-12-29T00:38:56;13.88;;;3.55;;
35689;SDS011;26977;44.830;-0.674;2022-12-29T00:41:44;8.38;;;2.78;;
35689;SDS011;26977;44.830;-0.674;2022-12-29T00:44:28;10.75;;;2.90;;
35689;SDS011;26977;44.830;-0.674;2022-12-29T00:46:53;10.43;;;2.97;;
35689;SDS011;26977;44.830;-0.674;2022-12-29T00:49:19;9.15;;;2.63;;
35689;SDS011;26977;44.830;-0.674;2022-12-29T00:54:31;16.23;;;3.92;;
35689;SDS011;26977;44.830;-0.674;2022-12-29T00:56:58;12.15;;;3.40;;
35689;SDS011;26977;44.830;-0.674;2022-12-29T00:59:24;15.52;;;3.25;;
35689;SDS011;26977;44.830;-0.674;2022-12-29T01:01:51;10.98;;;3.03;;
35689;SDS011;26977;44.830;-0.674;2022-12-29T01:04:17;13.50;;;3.25;;
35689;SDS011;26977;44.830;-0.674;2022-12-29T01:06:43;10.95;;;2.85;;
35689;SDS011;26977;44.830;-0.674;2022-12-29T01:09:10;15.93;;;3.30;;
35689;SDS011;26977;44.830;-0.674;2022-12-29T01:11:54;11.88;;;3.10;;
35689;SDS011;26977;44.830;-0.674;2022-12-29T01:14:20;13.90;;;3.55;;
35689;SDS011;26977;44.830;-0.674;2022-12-29T01:16:47;13.73;;;3.63;;
35689;SDS011;26977;44.830;-0.674;2022-12-29T01:19:13;19.75;;;3.78;;
35689;SDS011;26977;44.830;-0.674;2022-12-29T01:21:40;16.50;;;3.60;;
35689;SDS011;26977;44.830;-0.674;2022-12-29T01:24:06;13.90;;;4.22;;
35689;SDS011;26977;44.830;-0.674;2022-12-29T01:26:31;15.77;;;3.72;;
35689;SDS011;26977;44.830;-0.674;2022-12-29T01:28:57;16.27;;;3.28;;
35689;SDS011;26977;44.830;-0.674;2022-12-29T01:31:23;12.25;;;3.05;;
35689;SDS011;26977;44.830;-0.674;2022-12-29T01:33:49;18.60;;;3.50;;
35689;SDS011;26977;44.830;-0.674;2022-12-29T01:36:15;9.85;;;3.55;;
35689;SDS011;26977;44.830;-0.674;2022-12-29T01:38:43;13.27;;;3.60;;
35689;SDS011;26977;44.830;-0.674;2022-12-29T01:41:10;14.55;;;3.90;;
35689;SDS011;26977;44.830;-0.674;2022-12-29T01:51:35;13.30;;;3.50;;
35689;SDS011;26977;44.830;-0.674;2022-12-29T01:54:16;14.10;;;3.47;;
35689;SDS011;26977;44.830;-0.674;2022-12-29T01:56:49;15.48;;;4.60;;
35689;SDS011;26977;44.830;-0.674;2022-12-29T01:59:17;14.60;;;3.72;;
35689;SDS011;26977;44.830;-0.674;2022-12-29T02:01:47;11.18;;;3.65;;
35689;SDS011;26977;44.830;-0.674;2022-12-29T02:04:13;15.32;;;4.20;;
35689;SDS011;26977;44.830;-0.674;2022-12-29T02:06:41;13.38;;;3.63;;
35689;SDS011;26977;44.830;-0.674;2022-12-29T02:09:12;16.77;;;3.58;;
35689;SDS011;26977;44.830;-0.674;2022-12-29T02:11:38;14.20;;;3.80;;
35689;SDS011;26977;44.830;-0.674;2022-12-29T02:14:08;13.48;;;3.63;;
35689;SDS011;26977;44.830;-0.674;2022-12-29T02:33:09;14.77;;;3.40;;
35689;SDS011;26977;44.830;-0.674;2022-12-29T02:38:20;14.05;;;3.58;;
35689;SDS011;26977;44.830;-0.674;2022-12-29T02:40:53;14.68;;;4.10;;
35689;SDS011;26977;44.830;-0.674;2022-12-29T02:43:35;18.02;;;4.70;;
35689;SDS011;26977;44.830;-0.674;2022-12-29T02:46:10;18.67;;;4.82;;
35689;SDS011;26977;44.830;-0.674;2022-12-29T02:48:43;25.23;;;4.50;;
35689;SDS011;26977;44.830;-0.674;2022-12-29T02:51:20;12.60;;;3.83;;
35689;SDS011;26977;44.830;-0.674;2022-12-29T02:53:53;20.88;;;4.40;;
35689;SDS011;26977;44.830;-0.674;2022-12-29T02:56:39;19.13;;;4.60;;
35689;SDS011;26977;44.830;-0.674;2022-12-29T02:59:05;16.60;;;4.75;;
35689;SDS011;26977;44.830;-0.674;2022-12-29T03:06:52;17.08;;;5.68;;
35689;SDS011;26977;44.830;-0.674;2022-12-29T03:15:13;20.95;;;5.28;;
35689;SDS011;26977;44.830;-0.674;2022-12-29T03:20:57;28.80;;;5.38;;
35689;SDS011;26977;44.830;-0.674;2022-12-29T03:23:27;27.27;;;5.78;;
35689;SDS011;26977;44.830;-0.674;2022-12-29T03:25:56;20.20;;;5.00;;
35689;SDS011;26977;44.830;-0.674;2022-12-29T03:28:26;16.60;;;5.10;;
35689;SDS011;26977;44.830;-0.674;2022-12-29T03:30:56;23.02;;;5.93;;
35689;SDS011;26977;44.830;-0.674;2022-12-29T03:33:24;26.95;;;6.57;;
35689;SDS011;26977;44.830;-0.674;2022-12-29T03:35:53;26.10;;;6.03;;
35689;SDS011;26977;44.830;-0.674;2022-12-29T03:38:27;33.00;;;6.75;;
35689;SDS011;26977;44.830;-0.674;2022-12-29T03:41:16;24.02;;;5.65;;
35689;SDS011;26977;44.830;-0.674;2022-12-29T03:43:45;28.00;;;6.70;;
35689;SDS011;26977;44.830;-0.674;2022-12-29T03:46:11;23.13;;;5.97;;
35689;SDS011;26977;44.830;-0.674;2022-12-29T03:48:37;24.65;;;6.28;;
35689;SDS011;26977;44.830;-0.674;2022-12-29T03:51:03;28.52;;;6.88;;
35689;SDS011;26977;44.830;-0.674;2022-12-29T03:53:28;20.92;;;5.97;;
35689;SDS011;26977;44.830;-0.674;2022-12-29T03:55:54;28.30;;;6.72;;
35689;SDS011;26977;44.830;-0.674;2022-12-29T03:58:20;27.45;;;5.88;;
35689;SDS011;26977;44.830;-0.674;2022-12-29T04:00:45;24.73;;;5.88;;
35689;SDS011;26977;44.830;-0.674;2022-12-29T04:03:11;24.08;;;5.82;;
35689;SDS011;26977;44.830;-0.674;2022-12-29T04:05:37;24.63;;;5.72;;
35689;SDS011;26977;44.830;-0.674;2022-12-29T04:08:02;26.38;;;5.78;;
35689;SDS011;26977;44.830;-0.674;2022-12-29T04:10:28;30.98;;;7.10;;
35689;SDS011;26977;44.830;-0.674;2022-12-29T04:12:54;23.20;;;6.28;;
35689;SDS011;26977;44.830;-0.674;2022-12-29T04:15:19;26.98;;;5.65;;
35689;SDS011;26977;44.830;-0.674;2022-12-29T04:17:45;30.23;;;6.15;;
35689;SDS011;26977;44.830;-0.674;2022-12-29T04:20:10;31.52;;;6.28;;
35689;SDS011;26977;44.830;-0.674;2022-12-29T04:23:01;26.98;;;6.25;;
35689;SDS011;26977;44.830;-0.674;2022-12-29T04:25:31;36.92;;;6.80;;
35689;SDS011;26977;44.830;-0.674;2022-12-29T04:27:58;23.88;;;5.18;;
35689;SDS011;26977;44.830;-0.674;2022-12-29T04:30:24;27.08;;;6.13;;
35689;SDS011;26977;44.830;-0.674;2022-12-29T04:32:50;29.10;;;5.13;;
35689;SDS011;26977;44.830;-0.674;2022-12-29T04:35:15;27.95;;;4.55;;
35689;SDS011;26977;44.830;-0.674;2022-12-29T04:37:44;23.90;;;4.70;;
35689;SDS011;26977;44.830;-0.674;2022-12-29T04:40:10;24.10;;;4.53;;
35689;SDS011;26977;44.830;-0.674;2022-12-29T04:42:36;19.50;;;3.92;;
35689;SDS011;26977;44.830;-0.674;2022-12-29T04:45:02;19.65;;;4.25;;
35689;SDS011;26977;44.830;-0.674;2022-12-29T04:47:31;25.60;;;3.97;;
35689;SDS011;26977;44.830;-0.674;2022-12-29T04:50:00;22.52;;;3.92;;
35689;SDS011;26977;44.830;-0.674;2022-12-29T04:52:26;23.48;;;3.97;;
35689;SDS011;26977;44.830;-0.674;2022-12-29T04:54:51;23.33;;;3.20;;
35689;SDS011;26977;44.830;-0.674;2022-12-29T04:57:17;17.70;;;3.58;;
35689;SDS011;26977;44.830;-0.674;2022-12-29T04:59:43;19.98;;;2.72;;
35689;SDS011;26977;44.830;-0.674;2022-12-29T05:02:12;24.50;;;3.88;;
35689;SDS011;26977;44.830;-0.674;2022-12-29T05:04:37;28.13;;;3.30;;
35689;SDS011;26977;44.830;-0.674;2022-12-29T05:07:03;19.48;;;2.60;;
35689;SDS011;26977;44.830;-0.674;2022-12-29T05:10:04;27.10;;;3.08;;
35689;SDS011;26977;44.830;-0.674;2022-12-29T05:12:32;20.83;;;3.35;;
35689;SDS011;26977;44.830;-0.674;2022-12-29T05:14:59;27.88;;;3.10;;
35689;SDS011;26977;44.830;-0.674;2022-12-29T05:17:25;23.40;;;2.97;;
35689;SDS011;26977;44.830;-0.674;2022-12-29T05:19:51;25.60;;;3.13;;
35689;SDS011;26977;44.830;-0.674;2022-12-29T05:22:17;18.35;;;2.88;;
35689;SDS011;26977;44.830;-0.674;2022-12-29T05:24:45;19.17;;;2.63;;
35689;SDS011;26977;44.830;-0.674;2022-12-29T05:27:14;26.10;;;3.00;;
35689;SDS011;26977;44.830;-0.674;2022-12-29T05:29:40;27.83;;;2.92;;
35689;SDS011;26977;44.830;-0.674;2022-12-29T05:32:06;27.65;;;2.72;;
35689;SDS011;26977;44.830;-0.674;2022-12-29T05:34:31;21.83;;;2.75;;
35689;SDS011;26977;44.830;-0.674;2022-12-29T05:36:57;29.92;;;3.05;;
35689;SDS011;26977;44.830;-0.674;2022-12-29T05:39:23;27.98;;;3.40;;
35689;SDS011;26977;44.830;-0.674;2022-12-29T05:41:49;29.75;;;3.47;;
35689;SDS011;26977;44.830;-0.674;2022-12-29T05:44:14;22.52;;;3.13;;
35689;SDS011;26977;44.830;-0.674;2022-12-29T05:46:56;24.50;;;3.50;;
35689;SDS011;26977;44.830;-0.674;2022-12-29T05:49:25;29.92;;;2.95;;
35689;SDS011;26977;44.830;-0.674;2022-12-29T05:51:51;29.23;;;3.55;;
35689;SDS011;26977;44.830;-0.674;2022-12-29T05:54:23;29.48;;;3.78;;
35689;SDS011;26977;44.830;-0.674;2022-12-29T05:56:48;32.67;;;3.95;;
35689;SDS011;26977;44.830;-0.674;2022-12-29T05:59:25;33.55;;;4.88;;
35689;SDS011;26977;44.830;-0.674;2022-12-29T06:01:50;33.67;;;4.47;;
35689;SDS011;26977;44.830;-0.674;2022-12-29T06:04:16;37.42;;;4.57;;
35689;SDS011;26977;44.830;-0.674;2022-12-29T06:06:42;37.97;;;4.13;;
35689;SDS011;26977;44.830;-0.674;2022-12-29T06:09:09;30.42;;;3.45;;
35689;SDS011;26977;44.830;-0.674;2022-12-29T06:11:38;45.38;;;4.97;;
35689;SDS011;26977;44.830;-0.674;2022-12-29T06:14:08;28.52;;;3.65;;
35689;SDS011;26977;44.830;-0.674;2022-12-29T06:16:39;30.00;;;3.80;;
35689;SDS011;26977;44.830;-0.674;2022-12-29T06:19:06;31.95;;;3.97;;
35689;SDS011;26977;44.830;-0.674;2022-12-29T06:21:32;34.03;;;4.45;;
35689;SDS011;26977;44.830;-0.674;2022-12-29T06:24:14;32.50;;;3.58;;
35689;SDS011;26977;44.830;-0.674;2022-12-29T06:26:50;29.05;;;4.57;;
35689;SDS011;26977;44.830;-0.674;2022-12-29T06:29:26;31.40;;;4.18;;
35689;SDS011;26977;44.830;-0.674;2022-12-29T06:32:17;44.70;;;4.53;;
35689;SDS011;26977;44.830;-0.674;2022-12-29T06:35:06;34.95;;;3.83;;
35689;SDS011;26977;44.830;-0.674;2022-12-29T06:37:32;33.28;;;4.07;;
35689;SDS011;26977;44.830;-0.674;2022-12-29T06:39:58;29.65;;;3.60;;
35689;SDS011;26977;44.830;-0.674;2022-12-29T06:42:24;37.00;;;4.10;;
35689;SDS011;26977;44.830;-0.674;2022-12-29T06:44:50;36.67;;;4.15;;
35689;SDS011;26977;44.830;-0.674;2022-12-29T06:47:16;40.25;;;4.18;;
35689;SDS011;26977;44.830;-0.674;2022-12-29T06:49:44;36.67;;;3.92;;
35689;SDS011;26977;44.830;-0.674;2022-12-29T06:52:10;38.45;;;4.07;;
35689;SDS011;26977;44.830;-0.674;2022-12-29T06:54:36;40.42;;;4.05;;
35689;SDS011;26977;44.830;-0.674;2022-12-29T06:57:02;38.00;;;4.68;;
35689;SDS011;26977;44.830;-0.674;2022-12-29T06:59:27;40.53;;;3.95;;
35689;SDS011;26977;44.830;-0.674;2022-12-29T07:01:53;41.85;;;4.88;;
35689;SDS011;26977;44.830;-0.674;2022-12-29T07:04:19;29.60;;;4.53;;
35689;SDS011;26977;44.830;-0.674;2022-12-29T07:06:44;42.85;;;5.10;;
35689;SDS011;26977;44.830;-0.674;2022-12-29T07:09:10;43.50;;;4.95;;
35689;SDS011;26977;44.830;-0.674;2022-12-29T07:11:36;47.97;;;5.72;;
35689;SDS011;26977;44.830;-0.674;2022-12-29T07:14:02;38.03;;;4.78;;
35689;SDS011;26977;44.830;-0.674;2022-12-29T07:16:28;43.40;;;5.15;;
35689;SDS011;26977;44.830;-0.674;2022-12-29T07:18:55;39.30;;;5.03;;
35689;SDS011;26977;44.830;-0.674;2022-12-29T07:21:22;44.65;;;5.32;;
35689;SDS011;26977;44.830;-0.674;2022-12-29T07:23:48;36.53;;;5.53;;
35689;SDS011;26977;44.830;-0.674;2022-12-29T07:26:14;30.33;;;5.30;;
35689;SDS011;26977;44.830;-0.674;2022-12-29T07:28:42;39.72;;;5.90;;
35689;SDS011;26977;44.830;-0.674;2022-12-29T07:31:15;48.35;;;5.10;;
35689;SDS011;26977;44.830;-0.674;2022-12-29T07:33:43;41.40;;;6.20;;
35689;SDS011;26977;44.830;-0.674;2022-12-29T07:36:10;39.80;;;5.55;;
35689;SDS011;26977;44.830;-0.674;2022-12-29T07:38:36;34.25;;;5.07;;
35689;SDS011;26977;44.830;-0.674;2022-12-29T07:41:01;34.75;;;5.55;;
35689;SDS011;26977;44.830;-0.674;2022-12-29T07:43:27;45.15;;;5.22;;
35689;SDS011;26977;44.830;-0.674;2022-12-29T07:45:53;41.70;;;4.80;;
35689;SDS011;26977;44.830;-0.674;2022-12-29T07:48:19;44.47;;;5.40;;
35689;SDS011;26977;44.830;-0.674;2022-12-29T07:50:45;37.67;;;6.43;;
35689;SDS011;26977;44.830;-0.674;2022-12-29T07:53:11;30.55;;;5.63;;
35689;SDS011;26977;44.830;-0.674;2022-12-29T07:55:36;39.58;;;6.15;;
35689;SDS011;26977;44.830;-0.674;2022-12-29T07:58:02;36.35;;;5.13;;
35689;SDS011;26977;44.830;-0.674;2022-12-29T08:00:28;29.63;;;4.60;;
35689;SDS011;26977;44.830;-0.674;2022-12-29T08:02:54;33.35;;;4.97;;
35689;SDS011;26977;44.830;-0.674;2022-12-29T08:05:20;33.35;;;4.32;;
35689;SDS011;26977;44.830;-0.674;2022-12-29T08:07:46;35.65;;;5.18;;
35689;SDS011;26977;44.830;-0.674;2022-12-29T08:10:12;33.50;;;4.78;;
35689;SDS011;26977;44.830;-0.674;2022-12-29T08:12:39;36.65;;;4.40;;
35689;SDS011;26977;44.830;-0.674;2022-12-29T08:15:06;31.17;;;5.07;;
35689;SDS011;26977;44.830;-0.674;2022-12-29T08:17:33;33.78;;;5.65;;
35689;SDS011;26977;44.830;-0.674;2022-12-29T08:19:58;27.88;;;4.03;;
35689;SDS011;26977;44.830;-0.674;2022-12-29T08:22:24;42.67;;;5.63;;
35689;SDS011;26977;44.830;-0.674;2022-12-29T08:24:50;28.10;;;4.97;;
35689;SDS011;26977;44.830;-0.674;2022-12-29T08:27:16;37.83;;;5.07;;
35689;SDS011;26977;44.830;-0.674;2022-12-29T08:29:43;32.58;;;5.07;;
35689;SDS011;26977;44.830;-0.674;2022-12-29T08:32:08;40.90;;;5.72;;
35689;SDS011;26977;44.830;-0.674;2022-12-29T08:34:34;35.58;;;5.80;;
35689;SDS011;26977;44.830;-0.674;2022-12-29T08:37:00;31.45;;;5.03;;
35689;SDS011;26977;44.830;-0.674;2022-12-29T08:39:26;37.38;;;6.32;;
35689;SDS011;26977;44.830;-0.674;2022-12-29T08:41:52;38.45;;;5.80;;
35689;SDS011;26977;44.830;-0.674;2022-12-29T08:44:18;39.55;;;5.78;;
35689;SDS011;26977;44.830;-0.674;2022-12-29T08:46:43;27.70;;;4.88;;
35689;SDS011;26977;44.830;-0.674;2022-12-29T08:49:09;55.15;;;7.47;;
35689;SDS011;26977;44.830;-0.674;2022-12-29T08:51:35;32.53;;;6.53;;
35689;SDS011;26977;44.830;-0.674;2022-12-29T08:54:03;41.05;;;6.20;;
35689;SDS011;26977;44.830;-0.674;2022-12-29T08:56:37;30.83;;;5.60;;
35689;SDS011;26977;44.830;-0.674;2022-12-29T08:59:03;34.72;;;5.75;;
35689;SDS011;26977;44.830;-0.674;2022-12-29T09:01:29;27.63;;;5.18;;
35689;SDS011;26977;44.830;-0.674;2022-12-29T09:03:56;24.98;;;5.00;;
35689;SDS011;26977;44.830;-0.674;2022-12-29T09:06:21;31.65;;;4.93;;
35689;SDS011;26977;44.830;-0.674;2022-12-29T09:08:47;22.63;;;4.30;;
35689;SDS011;26977;44.830;-0.674;2022-12-29T09:11:15;24.35;;;4.53;;
35689;SDS011;26977;44.830;-0.674;2022-12-29T09:13:45;15.88;;;3.75;;
35689;SDS011;26977;44.830;-0.674;2022-12-29T09:16:11;22.90;;;4.60;;
35689;SDS011;26977;44.830;-0.674;2022-12-29T09:18:38;27.48;;;5.10;;
35689;SDS011;26977;44.830;-0.674;2022-12-29T09:21:04;22.65;;;4.80;;
35689;SDS011;26977;44.830;-0.674;2022-12-29T09:23:33;27.15;;;4.97;;
35689;SDS011;26977;44.830;-0.674;2022-12-29T09:25:59;20.42;;;3.38;;
35689;SDS011;26977;44.830;-0.674;2022-12-29T09:28:25;13.73;;;3.30;;
35689;SDS011;26977;44.830;-0.674;2022-12-29T09:30:54;15.55;;;3.58;;
35689;SDS011;26977;44.830;-0.674;2022-12-29T09:33:21;15.18;;;3.42;;
35689;SDS011;26977;44.830;-0.674;2022-12-29T09:35:52;16.23;;;3.60;;
35689;SDS011;26977;44.830;-0.674;2022-12-29T09:38:18;13.32;;;3.25;;
35689;SDS011;26977;44.830;-0.674;2022-12-29T09:40:45;21.55;;;4.35;;
35689;SDS011;26977;44.830;-0.674;2022-12-29T09:49:40;21.13;;;5.05;;
35689;SDS011;26977;44.830;-0.674;2022-12-29T09:55:00;22.67;;;4.88;;
35689;SDS011;26977;44.830;-0.674;2022-12-29T09:57:38;19.05;;;4.78;;
35689;SDS011;26977;44.830;-0.674;2022-12-29T10:00:20;19.45;;;5.05;;
35689;SDS011;26977;44.830;-0.674;2022-12-29T10:03:02;13.05;;;3.75;;
35689;SDS011;26977;44.830;-0.674;2022-12-29T10:13:34;12.43;;;2.00;;
35689;SDS011;26977;44.830;-0.674;2022-12-29T10:16:18;9.38;;;1.85;;
35689;SDS011;26977;44.830;-0.674;2022-12-29T10:24:38;9.93;;;2.00;;
35689;SDS011;26977;44.830;-0.674;2022-12-29T10:27:05;7.70;;;1.30;;
35689;SDS011;26977;44.830;-0.674;2022-12-29T10:29:45;6.15;;;1.60;;
35689;SDS011;26977;44.830;-0.674;2022-12-29T10:35:34;9.35;;;1.95;;
35689;SDS011;26977;44.830;-0.674;2022-12-29T10:40:45;12.80;;;1.60;;
35689;SDS011;26977;44.830;-0.674;2022-12-29T10:43:28;7.00;;;1.40;;
35689;SDS011;26977;44.830;-0.674;2022-12-29T10:45:57;5.30;;;1.25;;
35689;SDS011;26977;44.830;-0.674;2022-12-29T10:48:36;11.18;;;2.05;;
35689;SDS011;26977;44.830;-0.674;2022-12-29T10:51:02;8.23;;;1.60;;
35689;SDS011;26977;44.830;-0.674;2022-12-29T10:53:33;12.00;;;2.03;;
35689;SDS011;26977;44.830;-0.674;2022-12-29T10:56:14;8.25;;;1.88;;
35689;SDS011;26977;44.830;-0.674;2022-12-29T10:58:46;9.65;;;1.80;;
35689;SDS011;26977;44.830;-0.674;2022-12-29T11:01:14;6.28;;;1.50;;
35689;SDS011;26977;44.830;-0.674;2022-12-29T11:03:44;12.10;;;1.77;;
35689;SDS011;26977;44.830;-0.674;2022-12-29T11:06:25;8.55;;;1.35;;
35689;SDS011;26977;44.830;-0.674;2022-12-29T11:08:56;10.38;;;1.95;;
35689;SDS011;26977;44.830;-0.674;2022-12-29T11:11:27;7.78;;;0.77;;
35689;SDS011;26977;44.830;-0.674;2022-12-29T11:13:59;7.47;;;1.13;;
35689;SDS011;26977;44.830;-0.674;2022-12-29T11:17:01;7.13;;;1.60;;
35689;SDS011;26977;44.830;-0.674;2022-12-29T11:19:29;9.27;;;1.23;;
35689;SDS011;26977;44.830;-0.674;2022-12-29T11:22:12;7.07;;;1.08;;
35689;SDS011;26977;44.830;-0.674;2022-12-29T11:24:52;3.30;;;0.90;;
35689;SDS011;26977;44.830;-0.674;2022-12-29T11:27:23;9.38;;;1.60;;
35689;SDS011;26977;44.830;-0.674;2022-12-29T11:29:51;9.38;;;1.58;;
35689;SDS011;26977;44.830;-0.674;2022-12-29T11:34:43;8.38;;;1.35;;
35689;SDS011;26977;44.830;-0.674;2022-12-29T11:37:10;8.27;;;1.33;;
35689;SDS011;26977;44.830;-0.674;2022-12-29T11:39:40;15.27;;;1.88;;
35689;SDS011;26977;44.830;-0.674;2022-12-29T11:42:36;11.43;;;1.70;;
35689;SDS011;26977;44.830;-0.674;2022-12-29T11:45:15;12.98;;;1.73;;
35689;SDS011;26977;44.830;-0.674;2022-12-29T11:47:42;6.88;;;1.23;;
35689;SDS011;26977;44.830;-0.674;2022-12-29T11:50:17;9.88;;;1.52;;
35689;SDS011;26977;44.830;-0.674;2022-12-29T11:52:45;8.02;;;1.27;;
35689;SDS011;26977;44.830;-0.674;2022-12-29T11:55:17;9.95;;;1.77;;
35689;SDS011;26977;44.830;-0.674;2022-12-29T11:57:47;8.20;;;1.35;;
35689;SDS011;26977;44.830;-0.674;2022-12-29T12:00:16;10.23;;;1.42;;
35689;SDS011;26977;44.830;-0.674;2022-12-29T12:02:56;13.30;;;1.35;;
35689;SDS011;26977;44.830;-0.674;2022-12-29T12:08:55;13.98;;;1.75;;
35689;SDS011;26977;44.830;-0.674;2022-12-29T12:11:26;14.25;;;1.83;;
35689;SDS011;26977;44.830;-0.674;2022-12-29T12:16:43;6.30;;;1.85;;
35689;SDS011;26977;44.830;-0.674;2022-12-29T12:22:35;12.60;;;1.75;;
35689;SDS011;26977;44.830;-0.674;2022-12-29T12:25:19;13.93;;;1.98;;
35689;SDS011;26977;44.830;-0.674;2022-12-29T12:30:36;13.32;;;2.67;;
35689;SDS011;26977;44.830;-0.674;2022-12-29T12:33:13;12.93;;;2.10;;
35689;SDS011;26977;44.830;-0.674;2022-12-29T12:41:11;11.90;;;1.25;;
35689;SDS011;26977;44.830;-0.674;2022-12-29T12:47:10;11.27;;;1.63;;
35689;SDS011;26977;44.830;-0.674;2022-12-29T12:52:54;16.85;;;1.67;;
35689;SDS011;26977;44.830;-0.674;2022-12-29T13:09:48;12.80;;;1.75;;
35689;SDS011;26977;44.830;-0.674;2022-12-29T13:14:57;9.60;;;1.13;;
35689;SDS011;26977;44.830;-0.674;2022-12-29T13:17:28;9.43;;;1.63;;
35689;SDS011;26977;44.830;-0.674;2022-12-29T13:20:20;11.20;;;1.58;;
35689;SDS011;26977;44.830;-0.674;2022-12-29T13:25:30;12.48;;;1.02;;
35689;SDS011;26977;44.830;-0.674;2022-12-29T13:36:19;10.00;;;1.20;;
35689;SDS011;26977;44.830;-0.674;2022-12-29T13:39:19;9.27;;;1.13;;
35689;SDS011;26977;44.830;-0.674;2022-12-29T13:41:49;7.95;;;1.23;;
35689;SDS011;26977;44.830;-0.674;2022-12-29T13:46:54;9.02;;;0.98;;
35689;SDS011;26977;44.830;-0.674;2022-12-29T13:49:23;10.50;;;1.50;;
35689;SDS011;26977;44.830;-0.674;2022-12-29T13:51:51;7.05;;;1.42;;
35689;SDS011;26977;44.830;-0.674;2022-12-29T13:54:27;6.45;;;1.23;;
35689;SDS011;26977;44.830;-0.674;2022-12-29T13:57:10;9.55;;;1.20;;
35689;SDS011;26977;44.830;-0.674;2022-12-29T14:00:03;11.00;;;1.50;;
35689;SDS011;26977;44.830;-0.674;2022-12-29T14:08:03;12.15;;;1.92;;
35689;SDS011;26977;44.830;-0.674;2022-12-29T14:10:35;9.02;;;1.42;;
35689;SDS011;26977;44.830;-0.674;2022-12-29T14:15:31;11.23;;;1.38;;
35689;SDS011;26977;44.830;-0.674;2022-12-29T14:18:03;11.18;;;1.17;;
35689;SDS011;26977;44.830;-0.674;2022-12-29T14:20:36;14.95;;;1.30;;
35689;SDS011;26977;44.830;-0.674;2022-12-29T14:26:09;14.82;;;1.45;;
35689;SDS011;26977;44.830;-0.674;2022-12-29T14:28:35;13.50;;;1.70;;
35689;SDS011;26977;44.830;-0.674;2022-12-29T14:33:39;13.38;;;1.63;;
35689;SDS011;26977;44.830;-0.674;2022-12-29T14:36:18;13.15;;;1.75;;
35689;SDS011;26977;44.830;-0.674;2022-12-29T14:38:44;12.45;;;1.67;;
35689;SDS011;26977;44.830;-0.674;2022-12-29T14:43:56;13.25;;;1.85;;
35689;SDS011;26977;44.830;-0.674;2022-12-29T14:46:48;10.75;;;1.95;;
35689;SDS011;26977;44.830;-0.674;2022-12-29T14:49:33;15.65;;;1.92;;
35689;SDS011;26977;44.830;-0.674;2022-12-29T14:52:20;12.27;;;1.85;;
35689;SDS011;26977;44.830;-0.674;2022-12-29T14:57:18;15.80;;;2.25;;
35689;SDS011;26977;44.830;-0.674;2022-12-29T15:00:00;17.23;;;2.55;;
35689;SDS011;26977;44.830;-0.674;2022-12-29T15:02:36;14.32;;;2.45;;
35689;SDS011;26977;44.830;-0.674;2022-12-29T15:05:05;17.73;;;2.35;;
35689;SDS011;26977;44.830;-0.674;2022-12-29T15:07:44;13.82;;;2.10;;
35689;SDS011;26977;44.830;-0.674;2022-12-29T15:10:13;14.43;;;2.85;;
35689;SDS011;26977;44.830;-0.674;2022-12-29T15:12:45;16.23;;;2.70;;
35689;SDS011;26977;44.830;-0.674;2022-12-29T15:15:27;16.65;;;2.30;;
35689;SDS011;26977;44.830;-0.674;2022-12-29T15:17:55;16.80;;;2.20;;
35689;SDS011;26977;44.830;-0.674;2022-12-29T15:22:50;14.63;;;2.08;;
35689;SDS011;26977;44.830;-0.674;2022-12-29T15:25:19;11.18;;;2.08;;
35689;SDS011;26977;44.830;-0.674;2022-12-29T15:27:49;10.00;;;2.20;;
35689;SDS011;26977;44.830;-0.674;2022-12-29T15:30:17;15.52;;;2.70;;
35689;SDS011;26977;44.830;-0.674;2022-12-29T15:32:44;15.55;;;2.42;;
35689;SDS011;26977;44.830;-0.674;2022-12-29T15:35:32;16.00;;;2.58;;
35689;SDS011;26977;44.830;-0.674;2022-12-29T15:38:01;11.80;;;3.05;;
35689;SDS011;26977;44.830;-0.674;2022-12-29T15:40:39;19.90;;;2.78;;
35689;SDS011;26977;44.830;-0.674;2022-12-29T15:45:48;20.58;;;2.60;;
35689;SDS011;26977;44.830;-0.674;2022-12-29T15:48:16;18.02;;;2.75;;
35689;SDS011;26977;44.830;-0.674;2022-12-29T15:50:44;20.00;;;3.85;;
35689;SDS011;26977;44.830;-0.674;2022-12-29T15:53:11;17.38;;;2.95;;
35689;SDS011;26977;44.830;-0.674;2022-12-29T15:55:43;14.98;;;3.08;;
35689;SDS011;26977;44.830;-0.674;2022-12-29T15:58:18;15.23;;;2.80;;
35689;SDS011;26977;44.830;-0.674;2022-12-29T16:00:50;16.60;;;3.55;;
35689;SDS011;26977;44.830;-0.674;2022-12-29T16:03:22;14.68;;;3.78;;
35689;SDS011;26977;44.830;-0.674;2022-12-29T16:05:57;16.50;;;3.28;;
35689;SDS011;26977;44.830;-0.674;2022-12-29T16:08:34;23.73;;;4.57;;
35689;SDS011;26977;44.830;-0.674;2022-12-29T16:11:18;26.23;;;5.05;;
35689;SDS011;26977;44.830;-0.674;2022-12-29T16:13:50;24.73;;;4.45;;
35689;SDS011;26977;44.830;-0.674;2022-12-29T16:16:27;24.77;;;5.70;;
35689;SDS011;26977;44.830;-0.674;2022-12-29T16:18:56;23.40;;;6.53;;
35689;SDS011;26977;44.830;-0.674;2022-12-29T16:21:24;30.75;;;6.97;;
35689;SDS011;26977;44.830;-0.674;2022-12-29T16:23:53;21.25;;;7.65;;
35689;SDS011;26977;44.830;-0.674;2022-12-29T16:26:22;28.13;;;9.18;;
35689;SDS011;26977;44.830;-0.674;2022-12-29T16:28:59;30.13;;;7.70;;
35689;SDS011;26977;44.830;-0.674;2022-12-29T16:36:57;23.17;;;6.57;;
35689;SDS011;26977;44.830;-0.674;2022-12-29T16:41:55;27.52;;;7.50;;
35689;SDS011;26977;44.830;-0.674;2022-12-29T16:44:22;29.40;;;7.05;;
35689;SDS011;26977;44.830;-0.674;2022-12-29T16:52:13;26.75;;;6.88;;
35689;SDS011;26977;44.830;-0.674;2022-12-29T16:54:58;29.98;;;6.97;;
35689;SDS011;26977;44.830;-0.674;2022-12-29T16:57:29;25.38;;;6.40;;
35689;SDS011;26977;44.830;-0.674;2022-12-29T17:00:07;24.38;;;5.75;;
35689;SDS011;26977;44.830;-0.674;2022-12-29T17:02:44;20.40;;;6.38;;
35689;SDS011;26977;44.830;-0.674;2022-12-29T17:05:13;30.10;;;6.65;;
35689;SDS011;26977;44.830;-0.674;2022-12-29T17:07:41;28.95;;;6.25;;
35689;SDS011;26977;44.830;-0.674;2022-12-29T17:10:07;21.35;;;6.10;;
35689;SDS011;26977;44.830;-0.674;2022-12-29T17:12:34;28.88;;;6.43;;
35689;SDS011;26977;44.830;-0.674;2022-12-29T17:15:05;22.75;;;5.35;;
35689;SDS011;26977;44.830;-0.674;2022-12-29T17:17:44;28.77;;;5.40;;
35689;SDS011;26977;44.830;-0.674;2022-12-29T17:20:26;27.13;;;6.10;;
35689;SDS011;26977;44.830;-0.674;2022-12-29T17:22:53;28.00;;;6.47;;
35689;SDS011;26977;44.830;-0.674;2022-12-29T17:25:21;32.05;;;7.63;;
35689;SDS011;26977;44.830;-0.674;2022-12-29T17:27:55;32.70;;;6.28;;
35689;SDS011;26977;44.830;-0.674;2022-12-29T17:30:27;30.70;;;6.38;;
35689;SDS011;26977;44.830;-0.674;2022-12-29T17:32:58;21.40;;;3.72;;